Terminal Aerodrome Forecast
Issued by NWS

Home | Current Version | Previous Version | Text Only | Print | Product List | Glossary On
Versions: 1 2 3 4 5 6 7 8 9 10 11 12 13 14 15 16 17 18 19 20 21 22 23
000
FTUS41 KPBZ 241000 AAC
TAFMGW
TAF AMD
KMGW 241012Z 2410/2506 00000KT 3SM BR BKN020
      TEMPO 2410/2412 2SM BR
     FM241300 27005KT P6SM BKN200=

USA.gov is the U.S. government's official web portal to all federal, state and local government web resources and services.